sensor_id;sensor_type;location;lat;lon;timestamp;P1;durP1;ratioP1;P2;durP2;ratioP2
38940;SDS011;43236;47.208;7.518;2022-10-28T00:02:46;39.20;;;12.45;;
38940;SDS011;43236;47.208;7.518;2022-10-28T00:05:35;47.10;;;13.40;;
38940;SDS011;43236;47.208;7.518;2022-10-28T00:08:22;48.17;;;13.60;;
38940;SDS011;43236;47.208;7.518;2022-10-28T00:11:09;46.47;;;15.20;;
38940;SDS011;43236;47.208;7.518;2022-10-28T00:13:59;36.35;;;13.05;;
38940;SDS011;43236;47.208;7.518;2022-10-28T00:16:47;37.00;;;12.80;;
38940;SDS011;43236;47.208;7.518;2022-10-28T00:19:34;45.70;;;12.95;;
38940;SDS011;43236;47.208;7.518;2022-10-28T00:22:23;54.10;;;14.70;;
38940;SDS011;43236;47.208;7.518;2022-10-28T00:25:10;50.42;;;13.55;;
38940;SDS011;43236;47.208;7.518;2022-10-28T00:27:57;50.55;;;15.48;;
38940;SDS011;43236;47.208;7.518;2022-10-28T00:30:44;64.65;;;14.07;;
38940;SDS011;43236;47.208;7.518;2022-10-28T00:33:31;51.45;;;13.48;;
38940;SDS011;43236;47.208;7.518;2022-10-28T00:36:19;65.47;;;14.15;;
38940;SDS011;43236;47.208;7.518;2022-10-28T00:39:09;52.97;;;14.40;;
38940;SDS011;43236;47.208;7.518;2022-10-28T00:41:58;55.85;;;14.77;;
38940;SDS011;43236;47.208;7.518;2022-10-28T00:44:51;48.47;;;15.23;;
38940;SDS011;43236;47.208;7.518;2022-10-28T00:47:41;57.10;;;13.85;;
38940;SDS011;43236;47.208;7.518;2022-10-28T00:50:38;59.28;;;15.25;;
38940;SDS011;43236;47.208;7.518;2022-10-28T00:53:29;62.20;;;14.30;;
38940;SDS011;43236;47.208;7.518;2022-10-28T00:56:19;94.45;;;14.55;;
38940;SDS011;43236;47.208;7.518;2022-10-28T00:59:07;58.17;;;16.98;;
38940;SDS011;43236;47.208;7.518;2022-10-28T01:04:49;73.35;;;14.82;;
38940;SDS011;43236;47.208;7.518;2022-10-28T01:07:37;72.28;;;15.75;;
38940;SDS011;43236;47.208;7.518;2022-10-28T01:10:34;78.93;;;15.93;;
38940;SDS011;43236;47.208;7.518;2022-10-28T01:13:35;92.00;;;16.50;;
38940;SDS011;43236;47.208;7.518;2022-10-28T01:16:31;56.67;;;16.73;;
38940;SDS011;43236;47.208;7.518;2022-10-28T01:19:32;69.53;;;18.13;;
38940;SDS011;43236;47.208;7.518;2022-10-28T01:22:37;74.53;;;17.83;;
38940;SDS011;43236;47.208;7.518;2022-10-28T01:25:43;50.03;;;16.83;;
38940;SDS011;43236;47.208;7.518;2022-10-28T01:28:54;37.03;;;15.93;;
38940;SDS011;43236;47.208;7.518;2022-10-28T01:32:12;34.93;;;15.53;;
38940;SDS011;43236;47.208;7.518;2022-10-28T01:35:06;37.83;;;14.27;;
38940;SDS011;43236;47.208;7.518;2022-10-28T01:38:10;39.50;;;15.73;;
38940;SDS011;43236;47.208;7.518;2022-10-28T01:41:05;40.28;;;15.10;;
38940;SDS011;43236;47.208;7.518;2022-10-28T01:43:59;43.90;;;16.13;;
38940;SDS011;43236;47.208;7.518;2022-10-28T01:46:51;39.92;;;17.17;;
38940;SDS011;43236;47.208;7.518;2022-10-28T01:49:47;38.92;;;16.33;;
38940;SDS011;43236;47.208;7.518;2022-10-28T01:52:38;42.28;;;16.42;;
38940;SDS011;43236;47.208;7.518;2022-10-28T01:55:27;36.47;;;17.02;;
38940;SDS011;43236;47.208;7.518;2022-10-28T01:58:19;38.75;;;16.65;;
38940;SDS011;43236;47.208;7.518;2022-10-28T02:01:10;38.85;;;16.40;;
38940;SDS011;43236;47.208;7.518;2022-10-28T02:03:58;34.75;;;16.67;;
38940;SDS011;43236;47.208;7.518;2022-10-28T02:06:47;46.60;;;16.23;;
38940;SDS011;43236;47.208;7.518;2022-10-28T02:09:41;44.97;;;16.85;;
38940;SDS011;43236;47.208;7.518;2022-10-28T02:12:40;45.78;;;16.83;;
38940;SDS011;43236;47.208;7.518;2022-10-28T02:15:36;36.40;;;16.70;;
38940;SDS011;43236;47.208;7.518;2022-10-28T02:18:32;48.78;;;18.17;;
38940;SDS011;43236;47.208;7.518;2022-10-28T02:21:27;43.45;;;18.23;;
38940;SDS011;43236;47.208;7.518;2022-10-28T02:24:26;45.30;;;17.80;;
38940;SDS011;43236;47.208;7.518;2022-10-28T02:27:24;48.13;;;17.73;;
38940;SDS011;43236;47.208;7.518;2022-10-28T02:30:19;42.22;;;17.55;;
38940;SDS011;43236;47.208;7.518;2022-10-28T02:33:09;41.47;;;18.08;;
38940;SDS011;43236;47.208;7.518;2022-10-28T02:36:01;50.92;;;17.50;;
38940;SDS011;43236;47.208;7.518;2022-10-28T02:38:51;41.00;;;18.10;;
38940;SDS011;43236;47.208;7.518;2022-10-28T02:41:42;49.05;;;19.55;;
38940;SDS011;43236;47.208;7.518;2022-10-28T02:44:37;39.15;;;18.38;;
38940;SDS011;43236;47.208;7.518;2022-10-28T02:47:31;49.65;;;18.08;;
38940;SDS011;43236;47.208;7.518;2022-10-28T02:50:23;43.75;;;17.38;;
38940;SDS011;43236;47.208;7.518;2022-10-28T02:56:06;35.38;;;15.57;;
38940;SDS011;43236;47.208;7.518;2022-10-28T02:58:56;31.70;;;15.02;;
38940;SDS011;43236;47.208;7.518;2022-10-28T03:01:43;32.60;;;13.60;;
38940;SDS011;43236;47.208;7.518;2022-10-28T03:04:30;32.67;;;14.77;;
38940;SDS011;43236;47.208;7.518;2022-10-28T03:07:18;38.53;;;15.10;;
38940;SDS011;43236;47.208;7.518;2022-10-28T03:10:06;41.78;;;15.32;;
38940;SDS011;43236;47.208;7.518;2022-10-28T03:12:53;33.15;;;15.32;;
38940;SDS011;43236;47.208;7.518;2022-10-28T03:15:41;40.28;;;15.07;;
38940;SDS011;43236;47.208;7.518;2022-10-28T03:18:29;31.17;;;14.65;;
38940;SDS011;43236;47.208;7.518;2022-10-28T03:21:16;33.72;;;14.75;;
38940;SDS011;43236;47.208;7.518;2022-10-28T03:24:03;36.67;;;14.43;;
38940;SDS011;43236;47.208;7.518;2022-10-28T03:26:50;33.72;;;15.30;;
38940;SDS011;43236;47.208;7.518;2022-10-28T03:29:37;40.70;;;15.43;;
38940;SDS011;43236;47.208;7.518;2022-10-28T03:32:26;35.28;;;15.02;;
38940;SDS011;43236;47.208;7.518;2022-10-28T03:35:13;34.63;;;14.75;;
38940;SDS011;43236;47.208;7.518;2022-10-28T03:38:00;32.40;;;14.52;;
38940;SDS011;43236;47.208;7.518;2022-10-28T03:40:47;40.45;;;15.35;;
38940;SDS011;43236;47.208;7.518;2022-10-28T03:43:34;41.33;;;14.70;;
38940;SDS011;43236;47.208;7.518;2022-10-28T03:46:22;34.75;;;14.90;;
38940;SDS011;43236;47.208;7.518;2022-10-28T03:49:10;33.35;;;13.85;;
38940;SDS011;43236;47.208;7.518;2022-10-28T03:51:57;41.45;;;14.35;;
38940;SDS011;43236;47.208;7.518;2022-10-28T03:54:44;39.45;;;14.90;;
38940;SDS011;43236;47.208;7.518;2022-10-28T03:57:32;29.95;;;15.02;;
38940;SDS011;43236;47.208;7.518;2022-10-28T04:00:19;42.05;;;14.30;;
38940;SDS011;43236;47.208;7.518;2022-10-28T04:03:06;40.33;;;15.30;;
38940;SDS011;43236;47.208;7.518;2022-10-28T04:05:55;36.17;;;15.77;;
38940;SDS011;43236;47.208;7.518;2022-10-28T04:08:42;36.72;;;15.75;;
38940;SDS011;43236;47.208;7.518;2022-10-28T04:11:29;40.00;;;17.33;;
38940;SDS011;43236;47.208;7.518;2022-10-28T04:14:16;34.03;;;16.08;;
38940;SDS011;43236;47.208;7.518;2022-10-28T04:17:03;38.88;;;17.58;;
38940;SDS011;43236;47.208;7.518;2022-10-28T04:19:50;40.08;;;18.27;;
38940;SDS011;43236;47.208;7.518;2022-10-28T04:22:38;36.97;;;19.15;;
38940;SDS011;43236;47.208;7.518;2022-10-28T04:25:26;40.30;;;18.38;;
38940;SDS011;43236;47.208;7.518;2022-10-28T04:28:13;42.63;;;18.15;;
38940;SDS011;43236;47.208;7.518;2022-10-28T04:31:00;36.33;;;18.27;;
38940;SDS011;43236;47.208;7.518;2022-10-28T04:33:47;33.15;;;16.77;;
38940;SDS011;43236;47.208;7.518;2022-10-28T04:36:34;41.67;;;17.58;;
38940;SDS011;43236;47.208;7.518;2022-10-28T04:39:23;39.67;;;17.25;;
38940;SDS011;43236;47.208;7.518;2022-10-28T04:42:10;39.72;;;17.23;;
38940;SDS011;43236;47.208;7.518;2022-10-28T04:44:57;36.40;;;16.55;;
38940;SDS011;43236;47.208;7.518;2022-10-28T04:47:44;39.83;;;19.02;;
38940;SDS011;43236;47.208;7.518;2022-10-28T04:50:31;33.63;;;16.58;;
38940;SDS011;43236;47.208;7.518;2022-10-28T04:53:18;38.05;;;16.58;;
38940;SDS011;43236;47.208;7.518;2022-10-28T04:56:07;40.97;;;16.00;;
38940;SDS011;43236;47.208;7.518;2022-10-28T04:58:55;38.75;;;16.27;;
38940;SDS011;43236;47.208;7.518;2022-10-28T05:01:42;31.85;;;15.80;;
38940;SDS011;43236;47.208;7.518;2022-10-28T05:04:29;33.42;;;15.52;;
38940;SDS011;43236;47.208;7.518;2022-10-28T05:07:16;33.20;;;15.68;;
38940;SDS011;43236;47.208;7.518;2022-10-28T05:10:03;37.88;;;15.50;;
38940;SDS011;43236;47.208;7.518;2022-10-28T05:13:01;33.45;;;15.25;;
38940;SDS011;43236;47.208;7.518;2022-10-28T05:15:48;35.63;;;15.23;;
38940;SDS011;43236;47.208;7.518;2022-10-28T05:18:35;35.08;;;15.10;;
38940;SDS011;43236;47.208;7.518;2022-10-28T05:21:23;35.65;;;15.70;;
38940;SDS011;43236;47.208;7.518;2022-10-28T05:24:10;38.05;;;15.77;;
38940;SDS011;43236;47.208;7.518;2022-10-28T05:26:57;36.72;;;15.90;;
38940;SDS011;43236;47.208;7.518;2022-10-28T05:29:46;34.90;;;16.73;;
38940;SDS011;43236;47.208;7.518;2022-10-28T05:32:33;40.40;;;16.17;;
38940;SDS011;43236;47.208;7.518;2022-10-28T05:35:20;35.47;;;16.17;;
38940;SDS011;43236;47.208;7.518;2022-10-28T05:38:07;38.40;;;16.95;;
38940;SDS011;43236;47.208;7.518;2022-10-28T05:40:54;43.92;;;18.33;;
38940;SDS011;43236;47.208;7.518;2022-10-28T05:43:41;38.42;;;17.38;;
38940;SDS011;43236;47.208;7.518;2022-10-28T05:46:31;38.95;;;17.10;;
38940;SDS011;43236;47.208;7.518;2022-10-28T05:49:18;44.55;;;16.63;;
38940;SDS011;43236;47.208;7.518;2022-10-28T05:52:05;42.20;;;17.98;;
38940;SDS011;43236;47.208;7.518;2022-10-28T05:54:53;52.15;;;18.52;;
38940;SDS011;43236;47.208;7.518;2022-10-28T05:57:40;52.63;;;16.77;;
38940;SDS011;43236;47.208;7.518;2022-10-28T06:00:27;42.15;;;16.80;;
38940;SDS011;43236;47.208;7.518;2022-10-28T06:03:15;48.10;;;18.02;;
38940;SDS011;43236;47.208;7.518;2022-10-28T06:06:03;39.53;;;17.27;;
38940;SDS011;43236;47.208;7.518;2022-10-28T06:08:50;46.00;;;18.13;;
38940;SDS011;43236;47.208;7.518;2022-10-28T06:11:37;43.47;;;18.30;;
38940;SDS011;43236;47.208;7.518;2022-10-28T06:14:24;38.97;;;17.63;;
38940;SDS011;43236;47.208;7.518;2022-10-28T06:17:11;44.67;;;17.65;;
38940;SDS011;43236;47.208;7.518;2022-10-28T06:19:59;37.33;;;18.13;;
38940;SDS011;43236;47.208;7.518;2022-10-28T06:22:47;38.83;;;17.33;;
38940;SDS011;43236;47.208;7.518;2022-10-28T06:25:34;46.90;;;18.88;;
38940;SDS011;43236;47.208;7.518;2022-10-28T06:28:21;42.90;;;17.80;;
38940;SDS011;43236;47.208;7.518;2022-10-28T06:31:09;43.63;;;18.52;;
38940;SDS011;43236;47.208;7.518;2022-10-28T06:33:56;38.83;;;17.95;;
38940;SDS011;43236;47.208;7.518;2022-10-28T06:36:44;46.45;;;18.23;;
38940;SDS011;43236;47.208;7.518;2022-10-28T06:39:31;37.97;;;16.92;;
38940;SDS011;43236;47.208;7.518;2022-10-28T06:42:22;42.90;;;18.20;;
38940;SDS011;43236;47.208;7.518;2022-10-28T06:45:09;39.25;;;18.30;;
38940;SDS011;43236;47.208;7.518;2022-10-28T06:47:56;35.97;;;17.38;;
38940;SDS011;43236;47.208;7.518;2022-10-28T06:50:44;35.95;;;17.20;;
38940;SDS011;43236;47.208;7.518;2022-10-28T06:53:33;35.67;;;17.25;;
38940;SDS011;43236;47.208;7.518;2022-10-28T06:56:20;34.95;;;17.80;;
38940;SDS011;43236;47.208;7.518;2022-10-28T06:59:07;37.75;;;17.33;;
38940;SDS011;43236;47.208;7.518;2022-10-28T07:01:54;35.15;;;17.70;;
38940;SDS011;43236;47.208;7.518;2022-10-28T07:04:44;36.25;;;17.17;;
38940;SDS011;43236;47.208;7.518;2022-10-28T07:07:31;34.80;;;17.42;;
38940;SDS011;43236;47.208;7.518;2022-10-28T07:10:19;38.60;;;17.42;;
38940;SDS011;43236;47.208;7.518;2022-10-28T07:13:06;34.13;;;17.63;;
38940;SDS011;43236;47.208;7.518;2022-10-28T07:15:54;35.90;;;17.27;;
38940;SDS011;43236;47.208;7.518;2022-10-28T07:18:42;37.83;;;17.80;;
38940;SDS011;43236;47.208;7.518;2022-10-28T07:21:29;38.10;;;18.50;;
38940;SDS011;43236;47.208;7.518;2022-10-28T07:24:16;38.85;;;18.60;;
38940;SDS011;43236;47.208;7.518;2022-10-28T07:27:05;33.75;;;16.20;;
38940;SDS011;43236;47.208;7.518;2022-10-28T07:29:53;33.05;;;16.92;;
38940;SDS011;43236;47.208;7.518;2022-10-28T07:32:40;39.17;;;17.88;;
38940;SDS011;43236;47.208;7.518;2022-10-28T07:35:27;36.10;;;17.52;;
38940;SDS011;43236;47.208;7.518;2022-10-28T07:38:14;35.00;;;17.05;;
38940;SDS011;43236;47.208;7.518;2022-10-28T07:41:02;34.47;;;16.70;;
38940;SDS011;43236;47.208;7.518;2022-10-28T07:43:51;36.28;;;16.67;;
38940;SDS011;43236;47.208;7.518;2022-10-28T07:46:38;33.85;;;16.95;;
38940;SDS011;43236;47.208;7.518;2022-10-28T07:49:26;31.77;;;16.95;;
38940;SDS011;43236;47.208;7.518;2022-10-28T07:52:13;31.67;;;17.58;;
38940;SDS011;43236;47.208;7.518;2022-10-28T07:55:00;32.58;;;16.38;;
38940;SDS011;43236;47.208;7.518;2022-10-28T07:57:47;35.05;;;16.63;;
38940;SDS011;43236;47.208;7.518;2022-10-28T08:00:36;32.15;;;16.08;;
38940;SDS011;43236;47.208;7.518;2022-10-28T08:03:23;30.38;;;15.25;;
38940;SDS011;43236;47.208;7.518;2022-10-28T08:06:11;31.30;;;15.77;;
38940;SDS011;43236;47.208;7.518;2022-10-28T08:09:00;32.58;;;15.75;;
38940;SDS011;43236;47.208;7.518;2022-10-28T08:11:48;30.92;;;15.68;;
38940;SDS011;43236;47.208;7.518;2022-10-28T08:14:35;29.65;;;15.55;;
38940;SDS011;43236;47.208;7.518;2022-10-28T08:17:24;29.70;;;16.73;;
38940;SDS011;43236;47.208;7.518;2022-10-28T08:20:11;26.88;;;14.50;;
38940;SDS011;43236;47.208;7.518;2022-10-28T08:22:58;27.88;;;14.52;;
38940;SDS011;43236;47.208;7.518;2022-10-28T08:25:48;25.38;;;13.52;;
38940;SDS011;43236;47.208;7.518;2022-10-28T08:28:35;26.60;;;13.90;;
38940;SDS011;43236;47.208;7.518;2022-10-28T08:31:22;24.65;;;14.27;;
38940;SDS011;43236;47.208;7.518;2022-10-28T08:34:11;27.48;;;14.70;;
38940;SDS011;43236;47.208;7.518;2022-10-28T08:36:58;25.45;;;14.00;;
38940;SDS011;43236;47.208;7.518;2022-10-28T08:39:45;25.00;;;13.82;;
38940;SDS011;43236;47.208;7.518;2022-10-28T08:42:34;28.83;;;15.05;;
38940;SDS011;43236;47.208;7.518;2022-10-28T08:45:29;31.33;;;15.25;;
38940;SDS011;43236;47.208;7.518;2022-10-28T08:48:26;25.63;;;14.50;;
38940;SDS011;43236;47.208;7.518;2022-10-28T08:51:18;28.15;;;15.43;;
38940;SDS011;43236;47.208;7.518;2022-10-28T08:54:10;29.02;;;15.63;;
38940;SDS011;43236;47.208;7.518;2022-10-28T08:59:51;33.53;;;15.93;;
38940;SDS011;43236;47.208;7.518;2022-10-28T09:02:44;29.05;;;15.82;;
38940;SDS011;43236;47.208;7.518;2022-10-28T09:05:35;32.08;;;15.00;;
38940;SDS011;43236;47.208;7.518;2022-10-28T09:08:25;28.63;;;15.02;;
38940;SDS011;43236;47.208;7.518;2022-10-28T09:14:43;26.10;;;13.60;;
38940;SDS011;43236;47.208;7.518;2022-10-28T09:17:45;27.55;;;14.13;;
38940;SDS011;43236;47.208;7.518;2022-10-28T09:20:42;28.10;;;13.65;;
38940;SDS011;43236;47.208;7.518;2022-10-28T09:23:37;27.08;;;14.15;;
38940;SDS011;43236;47.208;7.518;2022-10-28T09:26:36;25.80;;;14.40;;
38940;SDS011;43236;47.208;7.518;2022-10-28T09:29:35;27.95;;;14.15;;
38940;SDS011;43236;47.208;7.518;2022-10-28T09:32:33;29.25;;;14.73;;
38940;SDS011;43236;47.208;7.518;2022-10-28T09:35:29;31.05;;;14.95;;
38940;SDS011;43236;47.208;7.518;2022-10-28T09:38:25;25.63;;;14.80;;
38940;SDS011;43236;47.208;7.518;2022-10-28T09:41:16;29.20;;;14.82;;
38940;SDS011;43236;47.208;7.518;2022-10-28T09:44:09;27.33;;;14.43;;
38940;SDS011;43236;47.208;7.518;2022-10-28T09:46:59;30.40;;;14.80;;
38940;SDS011;43236;47.208;7.518;2022-10-28T09:49:50;29.67;;;15.30;;
38940;SDS011;43236;47.208;7.518;2022-10-28T09:52:42;29.90;;;15.23;;
38940;SDS011;43236;47.208;7.518;2022-10-28T09:55:36;29.15;;;15.68;;
38940;SDS011;43236;47.208;7.518;2022-10-28T09:58:24;34.22;;;16.92;;
38940;SDS011;43236;47.208;7.518;2022-10-28T10:01:12;27.85;;;14.80;;
38940;SDS011;43236;47.208;7.518;2022-10-28T10:04:00;24.83;;;14.50;;
38940;SDS011;43236;47.208;7.518;2022-10-28T10:06:50;25.90;;;13.90;;
38940;SDS011;43236;47.208;7.518;2022-10-28T10:09:43;27.75;;;14.13;;
38940;SDS011;43236;47.208;7.518;2022-10-28T10:12:30;27.05;;;13.55;;
38940;SDS011;43236;47.208;7.518;2022-10-28T10:15:24;24.92;;;13.95;;
38940;SDS011;43236;47.208;7.518;2022-10-28T10:18:14;27.02;;;14.18;;
38940;SDS011;43236;47.208;7.518;2022-10-28T10:21:06;28.13;;;13.35;;
38940;SDS011;43236;47.208;7.518;2022-10-28T10:23:53;29.48;;;13.00;;
38940;SDS011;43236;47.208;7.518;2022-10-28T10:26:40;28.27;;;14.02;;
38940;SDS011;43236;47.208;7.518;2022-10-28T10:29:27;29.13;;;14.70;;
38940;SDS011;43236;47.208;7.518;2022-10-28T10:32:18;28.67;;;13.90;;
38940;SDS011;43236;47.208;7.518;2022-10-28T10:35:18;29.30;;;14.18;;
38940;SDS011;43236;47.208;7.518;2022-10-28T10:38:12;32.80;;;14.88;;
38940;SDS011;43236;47.208;7.518;2022-10-28T10:41:01;36.28;;;15.98;;
38940;SDS011;43236;47.208;7.518;2022-10-28T10:43:48;30.58;;;15.10;;
38940;SDS011;43236;47.208;7.518;2022-10-28T10:46:35;30.85;;;14.60;;
38940;SDS011;43236;47.208;7.518;2022-10-28T10:49:23;30.20;;;15.07;;
38940;SDS011;43236;47.208;7.518;2022-10-28T10:52:16;29.23;;;14.85;;
38940;SDS011;43236;47.208;7.518;2022-10-28T10:55:06;32.80;;;14.70;;
38940;SDS011;43236;47.208;7.518;2022-10-28T10:58:05;36.25;;;14.93;;
38940;SDS011;43236;47.208;7.518;2022-10-28T11:01:01;25.10;;;13.13;;
38940;SDS011;43236;47.208;7.518;2022-10-28T11:03:52;28.13;;;12.75;;
38940;SDS011;43236;47.208;7.518;2022-10-28T11:06:47;27.58;;;10.48;;
38940;SDS011;43236;47.208;7.518;2022-10-28T11:09:37;24.23;;;11.80;;
38940;SDS011;43236;47.208;7.518;2022-10-28T11:12:27;29.98;;;11.50;;
38940;SDS011;43236;47.208;7.518;2022-10-28T11:15:20;24.10;;;10.90;;
38940;SDS011;43236;47.208;7.518;2022-10-28T11:18:14;28.48;;;11.15;;
38940;SDS011;43236;47.208;7.518;2022-10-28T11:21:06;26.63;;;11.60;;
38940;SDS011;43236;47.208;7.518;2022-10-28T11:24:05;30.27;;;13.30;;
38940;SDS011;43236;47.208;7.518;2022-10-28T11:27:14;29.80;;;12.75;;
38940;SDS011;43236;47.208;7.518;2022-10-28T11:30:12;29.73;;;13.40;;
38940;SDS011;43236;47.208;7.518;2022-10-28T11:33:03;29.27;;;13.20;;
38940;SDS011;43236;47.208;7.518;2022-10-28T11:35:55;30.65;;;12.20;;
38940;SDS011;43236;47.208;7.518;2022-10-28T11:38:52;25.15;;;12.57;;
38940;SDS011;43236;47.208;7.518;2022-10-28T11:42:03;28.70;;;12.38;;
38940;SDS011;43236;47.208;7.518;2022-10-28T11:45:01;27.98;;;11.98;;
38940;SDS011;43236;47.208;7.518;2022-10-28T11:48:00;29.13;;;11.60;;
38940;SDS011;43236;47.208;7.518;2022-10-28T11:51:04;28.60;;;13.02;;
38940;SDS011;43236;47.208;7.518;2022-10-28T11:54:13;24.83;;;11.38;;
38940;SDS011;43236;47.208;7.518;2022-10-28T11:57:07;25.98;;;10.50;;
38940;SDS011;43236;47.208;7.518;2022-10-28T12:00:04;26.38;;;11.73;;
38940;SDS011;43236;47.208;7.518;2022-10-28T12:03:15;22.58;;;12.27;;
38940;SDS011;43236;47.208;7.518;2022-10-28T12:06:16;31.85;;;12.38;;
38940;SDS011;43236;47.208;7.518;2022-10-28T12:12:08;24.48;;;9.68;;
38940;SDS011;43236;47.208;7.518;2022-10-28T12:15:10;25.65;;;9.82;;
38940;SDS011;43236;47.208;7.518;2022-10-28T12:18:04;21.17;;;8.75;;
38940;SDS011;43236;47.208;7.518;2022-10-28T12:20:58;19.02;;;9.35;;
38940;SDS011;43236;47.208;7.518;2022-10-28T12:23:48;23.35;;;9.35;;
38940;SDS011;43236;47.208;7.518;2022-10-28T12:26:38;21.52;;;9.02;;
38940;SDS011;43236;47.208;7.518;2022-10-28T12:29:29;23.00;;;9.15;;
38940;SDS011;43236;47.208;7.518;2022-10-28T12:32:21;22.10;;;9.10;;
38940;SDS011;43236;47.208;7.518;2022-10-28T12:35:15;18.08;;;7.60;;
38940;SDS011;43236;47.208;7.518;2022-10-28T12:38:05;22.15;;;7.78;;
38940;SDS011;43236;47.208;7.518;2022-10-28T12:40:58;27.00;;;7.68;;
38940;SDS011;43236;47.208;7.518;2022-10-28T12:43:54;19.02;;;8.45;;
38940;SDS011;43236;47.208;7.518;2022-10-28T12:46:49;16.80;;;7.93;;
38940;SDS011;43236;47.208;7.518;2022-10-28T12:49:56;21.20;;;7.70;;
38940;SDS011;43236;47.208;7.518;2022-10-28T12:52:50;16.45;;;7.15;;
38940;SDS011;43236;47.208;7.518;2022-10-28T12:55:44;18.50;;;7.43;;
38940;SDS011;43236;47.208;7.518;2022-10-28T12:58:37;17.40;;;6.57;;
38940;SDS011;43236;47.208;7.518;2022-10-28T13:01:34;20.50;;;6.40;;
38940;SDS011;43236;47.208;7.518;2022-10-28T13:04:22;18.23;;;6.53;;
38940;SDS011;43236;47.208;7.518;2022-10-28T13:07:17;14.93;;;6.97;;
38940;SDS011;43236;47.208;7.518;2022-10-28T13:10:16;16.08;;;6.78;;
38940;SDS011;43236;47.208;7.518;2022-10-28T13:13:22;19.48;;;6.95;;
38940;SDS011;43236;47.208;7.518;2022-10-28T13:16:31;15.77;;;5.97;;
38940;SDS011;43236;47.208;7.518;2022-10-28T13:19:30;20.35;;;5.90;;
38940;SDS011;43236;47.208;7.518;2022-10-28T13:22:31;13.73;;;5.47;;
38940;SDS011;43236;47.208;7.518;2022-10-28T13:25:43;23.40;;;5.72;;
38940;SDS011;43236;47.208;7.518;2022-10-28T13:28:40;16.90;;;5.55;;
38940;SDS011;43236;47.208;7.518;2022-10-28T13:31:35;14.68;;;5.15;;
38940;SDS011;43236;47.208;7.518;2022-10-28T13:34:29;13.07;;;5.20;;
38940;SDS011;43236;47.208;7.518;2022-10-28T13:37:18;14.32;;;5.05;;
38940;SDS011;43236;47.208;7.518;2022-10-28T13:40:19;17.58;;;5.40;;
38940;SDS011;43236;47.208;7.518;2022-10-28T13:43:16;17.25;;;5.55;;
38940;SDS011;43236;47.208;7.518;2022-10-28T13:46:04;13.57;;;5.40;;
38940;SDS011;43236;47.208;7.518;2022-10-28T13:48:53;13.25;;;5.93;;
38940;SDS011;43236;47.208;7.518;2022-10-28T13:52:00;13.55;;;5.28;;
38940;SDS011;43236;47.208;7.518;2022-10-28T13:54:52;20.67;;;6.07;;
38940;SDS011;43236;47.208;7.518;2022-10-28T13:57:43;19.40;;;6.43;;
38940;SDS011;43236;47.208;7.518;2022-10-28T14:00:34;15.07;;;5.30;;
38940;SDS011;43236;47.208;7.518;2022-10-28T14:03:23;16.08;;;4.30;;
38940;SDS011;43236;47.208;7.518;2022-10-28T14:06:12;18.90;;;5.22;;
38940;SDS011;43236;47.208;7.518;2022-10-28T14:09:18;20.15;;;5.72;;
38940;SDS011;43236;47.208;7.518;2022-10-28T14:12:12;18.73;;;5.00;;
38940;SDS011;43236;47.208;7.518;2022-10-28T14:15:04;15.43;;;4.95;;
38940;SDS011;43236;47.208;7.518;2022-10-28T14:18:03;14.55;;;4.53;;
38940;SDS011;43236;47.208;7.518;2022-10-28T14:20:53;16.70;;;4.78;;
38940;SDS011;43236;47.208;7.518;2022-10-28T14:24:07;22.55;;;4.75;;
38940;SDS011;43236;47.208;7.518;2022-10-28T14:30:24;14.63;;;5.10;;
38940;SDS011;43236;47.208;7.518;2022-10-28T14:33:19;13.27;;;5.80;;
38940;SDS011;43236;47.208;7.518;2022-10-28T14:36:11;14.82;;;5.57;;
38940;SDS011;43236;47.208;7.518;2022-10-28T14:39:24;13.63;;;5.97;;
38940;SDS011;43236;47.208;7.518;2022-10-28T14:42:31;17.17;;;6.57;;
38940;SDS011;43236;47.208;7.518;2022-10-28T14:45:38;16.73;;;7.13;;
38940;SDS011;43236;47.208;7.518;2022-10-28T14:48:42;23.35;;;7.82;;
38940;SDS011;43236;47.208;7.518;2022-10-28T14:51:35;19.95;;;7.68;;
38940;SDS011;43236;47.208;7.518;2022-10-28T14:54:31;21.35;;;7.50;;
38940;SDS011;43236;47.208;7.518;2022-10-28T14:57:25;17.13;;;6.80;;
38940;SDS011;43236;47.208;7.518;2022-10-28T15:00:15;20.85;;;7.32;;
38940;SDS011;43236;47.208;7.518;2022-10-28T15:03:06;18.13;;;8.05;;
38940;SDS011;43236;47.208;7.518;2022-10-28T15:05:57;24.70;;;7.88;;
38940;SDS011;43236;47.208;7.518;2022-10-28T15:08:47;17.17;;;7.72;;
38940;SDS011;43236;47.208;7.518;2022-10-28T15:11:36;18.27;;;6.68;;
38940;SDS011;43236;47.208;7.518;2022-10-28T15:17:22;19.60;;;5.50;;
38940;SDS011;43236;47.208;7.518;2022-10-28T15:20:13;23.80;;;7.35;;
38940;SDS011;43236;47.208;7.518;2022-10-28T15:23:12;18.95;;;6.15;;
38940;SDS011;43236;47.208;7.518;2022-10-28T15:26:05;16.60;;;6.20;;
38940;SDS011;43236;47.208;7.518;2022-10-28T15:28:54;20.65;;;7.05;;
38940;SDS011;43236;47.208;7.518;2022-10-28T15:38:30;20.77;;;8.52;;
38940;SDS011;43236;47.208;7.518;2022-10-28T15:44:35;13.23;;;6.55;;
38940;SDS011;43236;47.208;7.518;2022-10-28T15:47:26;20.42;;;7.13;;
38940;SDS011;43236;47.208;7.518;2022-10-28T15:50:22;14.43;;;6.30;;
38940;SDS011;43236;47.208;7.518;2022-10-28T15:53:35;19.17;;;6.53;;
38940;SDS011;43236;47.208;7.518;2022-10-28T15:56:24;19.98;;;6.65;;
38940;SDS011;43236;47.208;7.518;2022-10-28T15:59:13;18.95;;;6.40;;
38940;SDS011;43236;47.208;7.518;2022-10-28T16:02:15;21.40;;;7.30;;
38940;SDS011;43236;47.208;7.518;2022-10-28T16:05:41;19.83;;;7.20;;
38940;SDS011;43236;47.208;7.518;2022-10-28T16:08:31;18.95;;;7.03;;
38940;SDS011;43236;47.208;7.518;2022-10-28T16:11:19;21.35;;;7.53;;
38940;SDS011;43236;47.208;7.518;2022-10-28T16:14:13;23.67;;;8.27;;
38940;SDS011;43236;47.208;7.518;2022-10-28T16:17:18;27.88;;;11.63;;
38940;SDS011;43236;47.208;7.518;2022-10-28T16:20:09;22.73;;;10.20;;
38940;SDS011;43236;47.208;7.518;2022-10-28T16:22:58;28.25;;;10.38;;
38940;SDS011;43236;47.208;7.518;2022-10-28T16:25:45;27.98;;;9.93;;
38940;SDS011;43236;47.208;7.518;2022-10-28T16:28:32;26.30;;;10.07;;
38940;SDS011;43236;47.208;7.518;2022-10-28T16:31:20;23.10;;;9.05;;
38940;SDS011;43236;47.208;7.518;2022-10-28T16:34:10;26.00;;;9.25;;
38940;SDS011;43236;47.208;7.518;2022-10-28T16:36:59;24.50;;;9.95;;
38940;SDS011;43236;47.208;7.518;2022-10-28T16:39:47;24.88;;;10.10;;
38940;SDS011;43236;47.208;7.518;2022-10-28T16:42:34;25.50;;;9.70;;
38940;SDS011;43236;47.208;7.518;2022-10-28T16:45:22;27.52;;;9.82;;
38940;SDS011;43236;47.208;7.518;2022-10-28T16:48:12;24.77;;;9.90;;
38940;SDS011;43236;47.208;7.518;2022-10-28T16:51:03;27.08;;;10.23;;
38940;SDS011;43236;47.208;7.518;2022-10-28T16:56:44;22.65;;;10.13;;
38940;SDS011;43236;47.208;7.518;2022-10-28T16:59:31;23.20;;;10.57;;
38940;SDS011;43236;47.208;7.518;2022-10-28T17:02:18;25.50;;;10.68;;
38940;SDS011;43236;47.208;7.518;2022-10-28T17:05:12;24.33;;;10.48;;
38940;SDS011;43236;47.208;7.518;2022-10-28T17:10:52;28.23;;;10.68;;
38940;SDS011;43236;47.208;7.518;2022-10-28T17:13:39;25.65;;;9.98;;
38940;SDS011;43236;47.208;7.518;2022-10-28T17:16:26;34.08;;;10.60;;
38940;SDS011;43236;47.208;7.518;2022-10-28T17:19:13;26.17;;;10.23;;
38940;SDS011;43236;47.208;7.518;2022-10-28T17:22:00;19.77;;;9.75;;
38940;SDS011;43236;47.208;7.518;2022-10-28T17:24:48;26.63;;;9.80;;
38940;SDS011;43236;47.208;7.518;2022-10-28T17:27:35;30.85;;;9.88;;